sensor_id;sensor_type;location;lat;lon;timestamp;P1;durP1;ratioP1;P2;durP2;ratioP2
23714;SDS011;12036;50.858;4.472;2023-03-23T00:00:46;5.20;;;2.85;;
23714;SDS011;12036;50.858;4.472;2023-03-23T00:03:12;4.93;;;3.05;;
23714;SDS011;12036;50.858;4.472;2023-03-23T00:05:38;6.40;;;3.15;;
23714;SDS011;12036;50.858;4.472;2023-03-23T00:08:06;5.45;;;3.10;;
23714;SDS011;12036;50.858;4.472;2023-03-23T00:10:35;5.32;;;3.47;;
23714;SDS011;12036;50.858;4.472;2023-03-23T00:13:00;3.20;;;2.80;;
23714;SDS011;12036;50.858;4.472;2023-03-23T00:15:29;5.78;;;3.05;;
23714;SDS011;12036;50.858;4.472;2023-03-23T00:17:58;3.30;;;2.55;;
23714;SDS011;12036;50.858;4.472;2023-03-23T00:22:55;4.18;;;2.83;;
23714;SDS011;12036;50.858;4.472;2023-03-23T00:25:25;4.10;;;2.75;;
23714;SDS011;12036;50.858;4.472;2023-03-23T00:27:51;5.78;;;3.05;;
23714;SDS011;12036;50.858;4.472;2023-03-23T00:30:16;4.55;;;3.20;;
23714;SDS011;12036;50.858;4.472;2023-03-23T00:32:42;6.45;;;2.92;;
23714;SDS011;12036;50.858;4.472;2023-03-23T00:35:08;6.15;;;3.05;;
23714;SDS011;12036;50.858;4.472;2023-03-23T00:37:34;3.95;;;3.17;;
23714;SDS011;12036;50.858;4.472;2023-03-23T00:40:00;4.25;;;3.05;;
23714;SDS011;12036;50.858;4.472;2023-03-23T00:42:30;4.63;;;3.28;;
23714;SDS011;12036;50.858;4.472;2023-03-23T00:45:01;4.03;;;3.00;;
23714;SDS011;12036;50.858;4.472;2023-03-23T00:47:29;6.00;;;2.95;;
23714;SDS011;12036;50.858;4.472;2023-03-23T00:49:55;4.63;;;2.92;;
23714;SDS011;12036;50.858;4.472;2023-03-23T00:52:21;5.90;;;2.85;;
23714;SDS011;12036;50.858;4.472;2023-03-23T00:54:47;6.53;;;3.17;;
23714;SDS011;12036;50.858;4.472;2023-03-23T00:57:13;3.97;;;3.38;;
23714;SDS011;12036;50.858;4.472;2023-03-23T00:59:39;3.85;;;3.10;;
23714;SDS011;12036;50.858;4.472;2023-03-23T01:02:05;5.35;;;2.90;;
23714;SDS011;12036;50.858;4.472;2023-03-23T01:04:30;7.00;;;3.40;;
23714;SDS011;12036;50.858;4.472;2023-03-23T01:06:57;4.85;;;3.10;;
23714;SDS011;12036;50.858;4.472;2023-03-23T01:09:25;4.68;;;3.25;;
23714;SDS011;12036;50.858;4.472;2023-03-23T01:11:51;4.65;;;3.25;;
23714;SDS011;12036;50.858;4.472;2023-03-23T01:14:20;4.47;;;3.00;;
23714;SDS011;12036;50.858;4.472;2023-03-23T01:16:46;2.83;;;2.33;;
23714;SDS011;12036;50.858;4.472;2023-03-23T01:19:12;4.70;;;3.13;;
23714;SDS011;12036;50.858;4.472;2023-03-23T01:21:37;3.42;;;2.65;;
23714;SDS011;12036;50.858;4.472;2023-03-23T01:24:03;3.50;;;3.00;;
23714;SDS011;12036;50.858;4.472;2023-03-23T01:26:30;5.05;;;2.92;;
23714;SDS011;12036;50.858;4.472;2023-03-23T01:28:55;5.30;;;2.97;;
23714;SDS011;12036;50.858;4.472;2023-03-23T01:31:22;4.80;;;3.10;;
23714;SDS011;12036;50.858;4.472;2023-03-23T01:33:50;4.97;;;3.00;;
23714;SDS011;12036;50.858;4.472;2023-03-23T01:36:18;5.20;;;2.90;;
23714;SDS011;12036;50.858;4.472;2023-03-23T01:38:46;3.92;;;3.10;;
23714;SDS011;12036;50.858;4.472;2023-03-23T01:41:13;3.30;;;2.25;;
23714;SDS011;12036;50.858;4.472;2023-03-23T01:43:57;3.53;;;2.70;;
23714;SDS011;12036;50.858;4.472;2023-03-23T01:46:52;8.50;;;3.13;;
23714;SDS011;12036;50.858;4.472;2023-03-23T01:49:21;5.03;;;2.60;;
23714;SDS011;12036;50.858;4.472;2023-03-23T01:51:56;5.10;;;2.65;;
23714;SDS011;12036;50.858;4.472;2023-03-23T01:54:24;7.13;;;2.63;;
23714;SDS011;12036;50.858;4.472;2023-03-23T01:56:53;4.60;;;2.92;;
23714;SDS011;12036;50.858;4.472;2023-03-23T01:59:41;4.43;;;2.80;;
23714;SDS011;12036;50.858;4.472;2023-03-23T02:02:10;4.53;;;2.75;;
23714;SDS011;12036;50.858;4.472;2023-03-23T02:04:36;6.75;;;2.65;;
23714;SDS011;12036;50.858;4.472;2023-03-23T02:07:02;4.03;;;2.60;;
23714;SDS011;12036;50.858;4.472;2023-03-23T02:09:29;3.97;;;2.65;;
23714;SDS011;12036;50.858;4.472;2023-03-23T02:11:55;4.07;;;2.45;;
23714;SDS011;12036;50.858;4.472;2023-03-23T02:14:21;3.53;;;2.42;;
23714;SDS011;12036;50.858;4.472;2023-03-23T02:16:55;3.28;;;2.10;;
23714;SDS011;12036;50.858;4.472;2023-03-23T02:36:02;4.25;;;1.73;;
23714;SDS011;12036;50.858;4.472;2023-03-23T02:38:37;6.07;;;2.10;;
23714;SDS011;12036;50.858;4.472;2023-03-23T02:41:30;4.10;;;1.67;;
23714;SDS011;12036;50.858;4.472;2023-03-23T02:43:57;4.85;;;1.60;;
23714;SDS011;12036;50.858;4.472;2023-03-23T02:46:24;4.22;;;1.65;;
23714;SDS011;12036;50.858;4.472;2023-03-23T02:48:51;3.15;;;1.50;;
23714;SDS011;12036;50.858;4.472;2023-03-23T02:51:20;3.95;;;1.42;;
23714;SDS011;12036;50.858;4.472;2023-03-23T02:53:47;3.55;;;1.48;;
23714;SDS011;12036;50.858;4.472;2023-03-23T02:56:16;1.90;;;1.20;;
23714;SDS011;12036;50.858;4.472;2023-03-23T02:58:42;2.78;;;1.40;;
23714;SDS011;12036;50.858;4.472;2023-03-23T03:03:53;4.00;;;1.58;;
23714;SDS011;12036;50.858;4.472;2023-03-23T03:09:01;4.22;;;1.17;;
23714;SDS011;12036;50.858;4.472;2023-03-23T03:11:45;6.63;;;1.80;;
23714;SDS011;12036;50.858;4.472;2023-03-23T03:14:18;3.90;;;1.20;;
23714;SDS011;12036;50.858;4.472;2023-03-23T03:21:58;2.10;;;1.30;;
23714;SDS011;12036;50.858;4.472;2023-03-23T03:24:25;4.30;;;1.30;;
23714;SDS011;12036;50.858;4.472;2023-03-23T03:26:54;2.38;;;1.20;;
23714;SDS011;12036;50.858;4.472;2023-03-23T03:29:26;5.80;;;1.77;;
23714;SDS011;12036;50.858;4.472;2023-03-23T03:31:57;6.28;;;1.10;;
23714;SDS011;12036;50.858;4.472;2023-03-23T03:34:25;2.17;;;1.25;;
23714;SDS011;12036;50.858;4.472;2023-03-23T03:36:51;4.32;;;1.35;;
23714;SDS011;12036;50.858;4.472;2023-03-23T03:39:20;4.32;;;1.20;;
23714;SDS011;12036;50.858;4.472;2023-03-23T03:41:46;4.20;;;1.30;;
23714;SDS011;12036;50.858;4.472;2023-03-23T03:44:13;4.68;;;1.30;;
23714;SDS011;12036;50.858;4.472;2023-03-23T03:46:40;4.70;;;1.42;;
23714;SDS011;12036;50.858;4.472;2023-03-23T03:49:06;3.95;;;1.40;;
23714;SDS011;12036;50.858;4.472;2023-03-23T03:51:35;3.50;;;1.00;;
23714;SDS011;12036;50.858;4.472;2023-03-23T03:54:01;3.70;;;1.27;;
23714;SDS011;12036;50.858;4.472;2023-03-23T03:56:26;4.45;;;1.55;;
23714;SDS011;12036;50.858;4.472;2023-03-23T03:58:52;4.18;;;1.27;;
23714;SDS011;12036;50.858;4.472;2023-03-23T04:01:19;7.25;;;1.75;;
23714;SDS011;12036;50.858;4.472;2023-03-23T04:03:47;5.13;;;1.50;;
23714;SDS011;12036;50.858;4.472;2023-03-23T04:06:14;4.82;;;1.83;;
23714;SDS011;12036;50.858;4.472;2023-03-23T04:08:40;2.90;;;1.45;;
23714;SDS011;12036;50.858;4.472;2023-03-23T04:11:09;6.38;;;1.60;;
23714;SDS011;12036;50.858;4.472;2023-03-23T04:13:37;4.40;;;1.30;;
23714;SDS011;12036;50.858;4.472;2023-03-23T04:16:03;5.40;;;1.48;;
23714;SDS011;12036;50.858;4.472;2023-03-23T04:18:29;3.25;;;1.00;;
23714;SDS011;12036;50.858;4.472;2023-03-23T04:20:57;7.78;;;1.33;;
23714;SDS011;12036;50.858;4.472;2023-03-23T04:23:24;3.67;;;0.65;;
23714;SDS011;12036;50.858;4.472;2023-03-23T04:25:51;6.15;;;1.38;;
23714;SDS011;12036;50.858;4.472;2023-03-23T04:28:23;4.32;;;1.40;;
23714;SDS011;12036;50.858;4.472;2023-03-23T04:30:52;3.20;;;1.15;;
23714;SDS011;12036;50.858;4.472;2023-03-23T04:33:19;3.40;;;1.30;;
23714;SDS011;12036;50.858;4.472;2023-03-23T04:35:47;8.32;;;1.00;;
23714;SDS011;12036;50.858;4.472;2023-03-23T04:38:14;4.70;;;1.15;;
23714;SDS011;12036;50.858;4.472;2023-03-23T04:40:42;7.18;;;1.13;;
23714;SDS011;12036;50.858;4.472;2023-03-23T04:43:08;3.83;;;1.35;;
23714;SDS011;12036;50.858;4.472;2023-03-23T04:45:37;7.30;;;1.20;;
23714;SDS011;12036;50.858;4.472;2023-03-23T04:48:06;4.70;;;0.90;;
23714;SDS011;12036;50.858;4.472;2023-03-23T04:50:33;4.10;;;1.23;;
23714;SDS011;12036;50.858;4.472;2023-03-23T04:53:00;4.18;;;1.00;;
23714;SDS011;12036;50.858;4.472;2023-03-23T04:55:32;5.03;;;1.10;;
23714;SDS011;12036;50.858;4.472;2023-03-23T04:58:04;6.63;;;1.10;;
23714;SDS011;12036;50.858;4.472;2023-03-23T05:00:31;6.10;;;1.35;;
23714;SDS011;12036;50.858;4.472;2023-03-23T05:02:57;6.00;;;1.30;;
23714;SDS011;12036;50.858;4.472;2023-03-23T05:05:23;4.65;;;1.20;;
23714;SDS011;12036;50.858;4.472;2023-03-23T05:07:50;4.50;;;1.20;;
23714;SDS011;12036;50.858;4.472;2023-03-23T05:10:16;4.70;;;1.00;;
23714;SDS011;12036;50.858;4.472;2023-03-23T05:12:42;4.85;;;1.30;;
23714;SDS011;12036;50.858;4.472;2023-03-23T05:15:09;5.28;;;1.10;;
23714;SDS011;12036;50.858;4.472;2023-03-23T05:17:36;2.80;;;1.20;;
23714;SDS011;12036;50.858;4.472;2023-03-23T05:20:02;6.47;;;1.00;;
23714;SDS011;12036;50.858;4.472;2023-03-23T05:22:33;7.20;;;1.20;;
23714;SDS011;12036;50.858;4.472;2023-03-23T05:24:59;3.67;;;1.15;;
23714;SDS011;12036;50.858;4.472;2023-03-23T05:27:27;4.00;;;1.30;;
23714;SDS011;12036;50.858;4.472;2023-03-23T05:29:55;4.65;;;1.08;;
23714;SDS011;12036;50.858;4.472;2023-03-23T05:32:23;2.95;;;1.10;;
23714;SDS011;12036;50.858;4.472;2023-03-23T05:34:54;2.17;;;1.00;;
23714;SDS011;12036;50.858;4.472;2023-03-23T05:37:21;6.22;;;0.98;;
23714;SDS011;12036;50.858;4.472;2023-03-23T05:39:48;4.93;;;1.10;;
23714;SDS011;12036;50.858;4.472;2023-03-23T05:42:13;5.90;;;1.20;;
23714;SDS011;12036;50.858;4.472;2023-03-23T05:44:39;3.28;;;1.10;;
23714;SDS011;12036;50.858;4.472;2023-03-23T05:47:05;2.35;;;1.00;;
23714;SDS011;12036;50.858;4.472;2023-03-23T05:49:30;3.80;;;1.35;;
23714;SDS011;12036;50.858;4.472;2023-03-23T05:51:56;5.68;;;1.40;;
23714;SDS011;12036;50.858;4.472;2023-03-23T05:54:22;3.45;;;1.63;;
23714;SDS011;12036;50.858;4.472;2023-03-23T05:56:48;3.88;;;1.20;;
23714;SDS011;12036;50.858;4.472;2023-03-23T05:59:14;6.88;;;1.40;;
23714;SDS011;12036;50.858;4.472;2023-03-23T06:01:40;5.70;;;1.60;;
23714;SDS011;12036;50.858;4.472;2023-03-23T06:04:06;3.42;;;1.05;;
23714;SDS011;12036;50.858;4.472;2023-03-23T06:06:31;3.33;;;1.15;;
23714;SDS011;12036;50.858;4.472;2023-03-23T06:08:57;4.80;;;1.27;;
23714;SDS011;12036;50.858;4.472;2023-03-23T06:11:24;6.07;;;1.23;;
23714;SDS011;12036;50.858;4.472;2023-03-23T06:13:51;3.30;;;1.17;;
23714;SDS011;12036;50.858;4.472;2023-03-23T06:16:17;4.60;;;1.25;;
23714;SDS011;12036;50.858;4.472;2023-03-23T06:18:43;5.75;;;1.40;;
23714;SDS011;12036;50.858;4.472;2023-03-23T06:21:10;6.28;;;1.27;;
23714;SDS011;12036;50.858;4.472;2023-03-23T06:23:36;8.43;;;1.65;;
23714;SDS011;12036;50.858;4.472;2023-03-23T06:26:03;7.93;;;1.85;;
23714;SDS011;12036;50.858;4.472;2023-03-23T06:28:31;5.72;;;2.03;;
23714;SDS011;12036;50.858;4.472;2023-03-23T06:30:59;7.93;;;1.55;;
23714;SDS011;12036;50.858;4.472;2023-03-23T06:33:25;3.97;;;1.58;;
23714;SDS011;12036;50.858;4.472;2023-03-23T06:35:51;8.13;;;1.55;;
23714;SDS011;12036;50.858;4.472;2023-03-23T06:38:16;4.00;;;1.52;;
23714;SDS011;12036;50.858;4.472;2023-03-23T06:40:43;8.27;;;1.38;;
23714;SDS011;12036;50.858;4.472;2023-03-23T06:43:11;4.35;;;1.50;;
23714;SDS011;12036;50.858;4.472;2023-03-23T06:45:38;7.55;;;1.30;;
23714;SDS011;12036;50.858;4.472;2023-03-23T06:48:04;6.80;;;1.45;;
23714;SDS011;12036;50.858;4.472;2023-03-23T06:50:30;7.18;;;1.23;;
23714;SDS011;12036;50.858;4.472;2023-03-23T06:52:56;8.18;;;1.63;;
23714;SDS011;12036;50.858;4.472;2023-03-23T06:55:22;6.13;;;1.42;;
23714;SDS011;12036;50.858;4.472;2023-03-23T06:57:47;4.55;;;1.20;;
23714;SDS011;12036;50.858;4.472;2023-03-23T07:00:13;6.13;;;1.50;;
23714;SDS011;12036;50.858;4.472;2023-03-23T07:02:40;5.00;;;1.83;;
23714;SDS011;12036;50.858;4.472;2023-03-23T07:05:06;4.35;;;1.52;;
23714;SDS011;12036;50.858;4.472;2023-03-23T07:07:34;5.20;;;1.45;;
23714;SDS011;12036;50.858;4.472;2023-03-23T07:10:00;4.95;;;1.70;;
23714;SDS011;12036;50.858;4.472;2023-03-23T07:12:26;4.35;;;1.83;;
23714;SDS011;12036;50.858;4.472;2023-03-23T07:14:52;5.53;;;2.28;;
23714;SDS011;12036;50.858;4.472;2023-03-23T07:17:17;6.47;;;1.70;;
23714;SDS011;12036;50.858;4.472;2023-03-23T07:19:43;5.38;;;1.63;;
23714;SDS011;12036;50.858;4.472;2023-03-23T07:22:09;2.05;;;0.75;;
23714;SDS011;12036;50.858;4.472;2023-03-23T07:24:35;2.17;;;0.60;;
23714;SDS011;12036;50.858;4.472;2023-03-23T07:27:01;1.77;;;0.65;;
23714;SDS011;12036;50.858;4.472;2023-03-23T07:29:27;1.75;;;0.60;;
23714;SDS011;12036;50.858;4.472;2023-03-23T07:31:53;1.25;;;0.35;;
23714;SDS011;12036;50.858;4.472;2023-03-23T07:34:19;1.55;;;0.40;;
23714;SDS011;12036;50.858;4.472;2023-03-23T07:36:45;2.22;;;0.70;;
23714;SDS011;12036;50.858;4.472;2023-03-23T07:39:11;1.10;;;0.52;;
23714;SDS011;12036;50.858;4.472;2023-03-23T07:41:38;2.40;;;0.77;;
23714;SDS011;12036;50.858;4.472;2023-03-23T07:44:04;2.72;;;0.82;;
23714;SDS011;12036;50.858;4.472;2023-03-23T07:46:30;3.40;;;0.90;;
23714;SDS011;12036;50.858;4.472;2023-03-23T07:48:56;4.95;;;0.95;;
23714;SDS011;12036;50.858;4.472;2023-03-23T07:51:22;6.72;;;1.23;;
23714;SDS011;12036;50.858;4.472;2023-03-23T07:53:49;3.85;;;1.20;;
23714;SDS011;12036;50.858;4.472;2023-03-23T07:56:16;4.85;;;1.63;;
23714;SDS011;12036;50.858;4.472;2023-03-23T07:58:44;3.70;;;1.35;;
23714;SDS011;12036;50.858;4.472;2023-03-23T08:01:11;1.75;;;1.27;;
23714;SDS011;12036;50.858;4.472;2023-03-23T08:03:37;8.25;;;1.92;;
23714;SDS011;12036;50.858;4.472;2023-03-23T08:06:03;6.78;;;1.67;;
23714;SDS011;12036;50.858;4.472;2023-03-23T08:08:30;8.40;;;1.30;;
23714;SDS011;12036;50.858;4.472;2023-03-23T08:10:57;6.53;;;0.95;;
23714;SDS011;12036;50.858;4.472;2023-03-23T08:13:23;5.45;;;1.25;;
23714;SDS011;12036;50.858;4.472;2023-03-23T08:15:49;6.32;;;1.35;;
23714;SDS011;12036;50.858;4.472;2023-03-23T08:18:16;4.00;;;1.02;;
23714;SDS011;12036;50.858;4.472;2023-03-23T08:20:42;1.80;;;0.90;;
23714;SDS011;12036;50.858;4.472;2023-03-23T08:23:09;5.10;;;1.10;;
23714;SDS011;12036;50.858;4.472;2023-03-23T08:25:36;1.85;;;1.00;;
23714;SDS011;12036;50.858;4.472;2023-03-23T08:28:02;4.38;;;0.90;;
23714;SDS011;12036;50.858;4.472;2023-03-23T08:30:29;2.92;;;0.50;;
23714;SDS011;12036;50.858;4.472;2023-03-23T08:32:57;2.15;;;0.80;;
23714;SDS011;12036;50.858;4.472;2023-03-23T08:35:25;3.08;;;0.85;;
23714;SDS011;12036;50.858;4.472;2023-03-23T08:37:50;0.95;;;0.60;;
23714;SDS011;12036;50.858;4.472;2023-03-23T08:40:18;5.97;;;0.90;;
23714;SDS011;12036;50.858;4.472;2023-03-23T08:42:45;3.03;;;0.80;;
23714;SDS011;12036;50.858;4.472;2023-03-23T08:45:13;2.42;;;0.70;;
23714;SDS011;12036;50.858;4.472;2023-03-23T08:47:41;2.47;;;0.68;;
23714;SDS011;12036;50.858;4.472;2023-03-23T08:50:08;3.35;;;0.77;;
23714;SDS011;12036;50.858;4.472;2023-03-23T08:52:36;1.90;;;0.75;;
23714;SDS011;12036;50.858;4.472;2023-03-23T08:55:03;3.42;;;1.10;;
23714;SDS011;12036;50.858;4.472;2023-03-23T08:57:29;5.18;;;1.02;;
23714;SDS011;12036;50.858;4.472;2023-03-23T08:59:55;4.60;;;1.15;;
23714;SDS011;12036;50.858;4.472;2023-03-23T09:02:26;3.72;;;0.85;;
23714;SDS011;12036;50.858;4.472;2023-03-23T09:04:52;8.13;;;1.10;;
23714;SDS011;12036;50.858;4.472;2023-03-23T09:07:19;1.80;;;0.90;;
23714;SDS011;12036;50.858;4.472;2023-03-23T09:09:45;4.57;;;0.98;;
23714;SDS011;12036;50.858;4.472;2023-03-23T09:12:10;5.20;;;1.33;;
23714;SDS011;12036;50.858;4.472;2023-03-23T09:14:37;7.60;;;1.10;;
23714;SDS011;12036;50.858;4.472;2023-03-23T09:17:03;1.65;;;0.80;;
23714;SDS011;12036;50.858;4.472;2023-03-23T09:19:30;7.28;;;1.15;;
23714;SDS011;12036;50.858;4.472;2023-03-23T09:21:58;5.47;;;1.13;;
23714;SDS011;12036;50.858;4.472;2023-03-23T09:24:25;1.92;;;0.95;;
23714;SDS011;12036;50.858;4.472;2023-03-23T09:26:51;2.30;;;1.02;;
23714;SDS011;12036;50.858;4.472;2023-03-23T09:29:17;3.53;;;0.70;;
23714;SDS011;12036;50.858;4.472;2023-03-23T09:31:44;2.55;;;1.13;;
23714;SDS011;12036;50.858;4.472;2023-03-23T09:34:11;4.43;;;1.35;;
23714;SDS011;12036;50.858;4.472;2023-03-23T09:36:38;6.35;;;1.40;;
23714;SDS011;12036;50.858;4.472;2023-03-23T09:39:04;1.60;;;1.17;;
23714;SDS011;12036;50.858;4.472;2023-03-23T09:44:46;4.22;;;1.13;;
23714;SDS011;12036;50.858;4.472;2023-03-23T09:52:18;2.78;;;0.80;;
23714;SDS011;12036;50.858;4.472;2023-03-23T09:54:51;3.63;;;0.80;;
23714;SDS011;12036;50.858;4.472;2023-03-23T09:59:54;1.75;;;0.90;;
23714;SDS011;12036;50.858;4.472;2023-03-23T10:07:51;2.15;;;0.95;;
23714;SDS011;12036;50.858;4.472;2023-03-23T10:10:24;3.65;;;1.30;;
23714;SDS011;12036;50.858;4.472;2023-03-23T10:13:45;5.07;;;1.25;;
23714;SDS011;12036;50.858;4.472;2023-03-23T10:15:49;3.08;;;1.45;;
23714;SDS011;12036;50.858;4.472;2023-03-23T10:21:07;2.90;;;1.30;;
23714;SDS011;12036;50.858;4.472;2023-03-23T10:28:54;2.47;;;1.50;;
23714;SDS011;12036;50.858;4.472;2023-03-23T10:33:54;3.65;;;1.30;;
23714;SDS011;12036;50.858;4.472;2023-03-23T10:36:50;2.58;;;1.35;;
23714;SDS011;12036;50.858;4.472;2023-03-23T10:39:20;6.57;;;1.73;;
23714;SDS011;12036;50.858;4.472;2023-03-23T10:41:48;3.20;;;1.60;;
23714;SDS011;12036;50.858;4.472;2023-03-23T10:44:21;5.75;;;1.60;;
23714;SDS011;12036;50.858;4.472;2023-03-23T10:49:42;7.63;;;1.77;;
23714;SDS011;12036;50.858;4.472;2023-03-23T10:52:23;6.25;;;1.95;;
23714;SDS011;12036;50.858;4.472;2023-03-23T10:55:37;5.70;;;1.73;;
23714;SDS011;12036;50.858;4.472;2023-03-23T10:57:40;5.80;;;1.60;;
23714;SDS011;12036;50.858;4.472;2023-03-23T11:02:58;6.55;;;1.70;;
23714;SDS011;12036;50.858;4.472;2023-03-23T11:08:09;4.38;;;1.95;;
23714;SDS011;12036;50.858;4.472;2023-03-23T11:10:41;9.45;;;1.70;;
23714;SDS011;12036;50.858;4.472;2023-03-23T11:13:21;4.57;;;1.98;;
23714;SDS011;12036;50.858;4.472;2023-03-23T11:15:52;7.05;;;1.65;;
23714;SDS011;12036;50.858;4.472;2023-03-23T11:18:37;4.85;;;1.85;;
23714;SDS011;12036;50.858;4.472;2023-03-23T11:21:03;3.75;;;1.58;;
23714;SDS011;12036;50.858;4.472;2023-03-23T11:23:41;6.47;;;1.90;;
23714;SDS011;12036;50.858;4.472;2023-03-23T11:31:48;7.88;;;1.85;;
23714;SDS011;12036;50.858;4.472;2023-03-23T11:36:49;8.83;;;1.70;;
23714;SDS011;12036;50.858;4.472;2023-03-23T11:39:29;8.25;;;1.73;;
23714;SDS011;12036;50.858;4.472;2023-03-23T11:42:11;5.47;;;1.58;;
23714;SDS011;12036;50.858;4.472;2023-03-23T11:44:41;6.50;;;1.60;;
23714;SDS011;12036;50.858;4.472;2023-03-23T11:50:04;5.32;;;1.70;;
23714;SDS011;12036;50.858;4.472;2023-03-23T11:52:38;7.13;;;1.75;;
23714;SDS011;12036;50.858;4.472;2023-03-23T11:55:14;4.13;;;1.30;;
23714;SDS011;12036;50.858;4.472;2023-03-23T11:57:44;4.45;;;1.60;;
23714;SDS011;12036;50.858;4.472;2023-03-23T12:00:16;4.40;;;1.80;;
23714;SDS011;12036;50.858;4.472;2023-03-23T12:08:33;5.60;;;1.00;;
23714;SDS011;12036;50.858;4.472;2023-03-23T12:16:13;5.65;;;1.23;;
23714;SDS011;12036;50.858;4.472;2023-03-23T12:19:04;5.30;;;1.00;;
23714;SDS011;12036;50.858;4.472;2023-03-23T12:27:32;3.55;;;1.00;;
23714;SDS011;12036;50.858;4.472;2023-03-23T12:30:32;6.88;;;1.52;;
23714;SDS011;12036;50.858;4.472;2023-03-23T12:43:49;8.52;;;1.75;;
23714;SDS011;12036;50.858;4.472;2023-03-23T12:46:35;6.07;;;1.50;;
23714;SDS011;12036;50.858;4.472;2023-03-23T12:49:23;7.20;;;1.63;;
23714;SDS011;12036;50.858;4.472;2023-03-23T12:57:52;6.40;;;1.30;;
23714;SDS011;12036;50.858;4.472;2023-03-23T13:00:26;4.65;;;1.45;;
23714;SDS011;12036;50.858;4.472;2023-03-23T13:05:49;6.40;;;1.50;;
23714;SDS011;12036;50.858;4.472;2023-03-23T13:08:22;4.90;;;1.50;;
23714;SDS011;12036;50.858;4.472;2023-03-23T13:10:56;6.35;;;1.60;;
23714;SDS011;12036;50.858;4.472;2023-03-23T13:13:43;6.10;;;1.77;;
23714;SDS011;12036;50.858;4.472;2023-03-23T13:16:26;6.38;;;1.73;;
23714;SDS011;12036;50.858;4.472;2023-03-23T13:19:25;6.88;;;1.15;;
23714;SDS011;12036;50.858;4.472;2023-03-23T13:24:33;9.32;;;1.60;;
23714;SDS011;12036;50.858;4.472;2023-03-23T13:29:31;7.90;;;1.40;;
23714;SDS011;12036;50.858;4.472;2023-03-23T13:32:11;7.43;;;1.75;;
23714;SDS011;12036;50.858;4.472;2023-03-23T13:34:40;4.95;;;1.35;;
23714;SDS011;12036;50.858;4.472;2023-03-23T13:37:10;4.43;;;1.40;;
23714;SDS011;12036;50.858;4.472;2023-03-23T13:42:19;8.00;;;1.10;;
23714;SDS011;12036;50.858;4.472;2023-03-23T13:50:09;7.22;;;1.67;;
23714;SDS011;12036;50.858;4.472;2023-03-23T13:58:22;10.30;;;1.92;;
23714;SDS011;12036;50.858;4.472;2023-03-23T14:01:00;7.00;;;1.40;;
23714;SDS011;12036;50.858;4.472;2023-03-23T14:03:37;6.25;;;1.70;;
23714;SDS011;12036;50.858;4.472;2023-03-23T14:06:06;5.20;;;1.40;;
23714;SDS011;12036;50.858;4.472;2023-03-23T14:08:38;4.00;;;1.08;;
23714;SDS011;12036;50.858;4.472;2023-03-23T14:18:52;7.55;;;1.48;;
23714;SDS011;12036;50.858;4.472;2023-03-23T14:21:26;8.25;;;1.58;;
23714;SDS011;12036;50.858;4.472;2023-03-23T14:24:09;8.50;;;1.63;;
23714;SDS011;12036;50.858;4.472;2023-03-23T14:26:37;4.93;;;1.48;;
23714;SDS011;12036;50.858;4.472;2023-03-23T14:29:03;8.35;;;2.08;;
23714;SDS011;12036;50.858;4.472;2023-03-23T14:31:30;9.43;;;3.10;;
23714;SDS011;12036;50.858;4.472;2023-03-23T14:34:04;7.55;;;2.63;;
23714;SDS011;12036;50.858;4.472;2023-03-23T14:36:41;8.13;;;1.70;;
23714;SDS011;12036;50.858;4.472;2023-03-23T14:41:36;9.93;;;2.75;;
23714;SDS011;12036;50.858;4.472;2023-03-23T14:44:03;4.60;;;1.67;;
23714;SDS011;12036;50.858;4.472;2023-03-23T14:46:33;10.93;;;2.25;;
23714;SDS011;12036;50.858;4.472;2023-03-23T14:49:04;7.82;;;2.70;;
23714;SDS011;12036;50.858;4.472;2023-03-23T14:51:30;9.65;;;2.63;;
23714;SDS011;12036;50.858;4.472;2023-03-23T14:53:58;5.60;;;2.10;;
23714;SDS011;12036;50.858;4.472;2023-03-23T14:56:33;4.88;;;1.85;;
23714;SDS011;12036;50.858;4.472;2023-03-23T14:59:03;6.20;;;1.80;;
23714;SDS011;12036;50.858;4.472;2023-03-23T15:01:31;8.18;;;1.70;;
23714;SDS011;12036;50.858;4.472;2023-03-23T15:04:02;6.53;;;1.70;;
23714;SDS011;12036;50.858;4.472;2023-03-23T15:06:37;6.38;;;1.83;;
23714;SDS011;12036;50.858;4.472;2023-03-23T15:09:07;7.80;;;2.00;;
23714;SDS011;12036;50.858;4.472;2023-03-23T15:11:38;9.70;;;1.67;;
23714;SDS011;12036;50.858;4.472;2023-03-23T15:14:15;6.85;;;1.67;;
23714;SDS011;12036;50.858;4.472;2023-03-23T15:16:45;4.03;;;1.30;;
23714;SDS011;12036;50.858;4.472;2023-03-23T15:19:20;5.13;;;1.50;;
23714;SDS011;12036;50.858;4.472;2023-03-23T15:21:53;9.95;;;1.65;;
23714;SDS011;12036;50.858;4.472;2023-03-23T15:26:51;5.35;;;1.65;;
23714;SDS011;12036;50.858;4.472;2023-03-23T15:29:17;7.35;;;1.50;;
23714;SDS011;12036;50.858;4.472;2023-03-23T15:31:52;12.52;;;1.73;;
23714;SDS011;12036;50.858;4.472;2023-03-23T15:34:30;7.68;;;1.77;;
23714;SDS011;12036;50.858;4.472;2023-03-23T15:37:05;7.30;;;1.80;;
23714;SDS011;12036;50.858;4.472;2023-03-23T15:39:44;8.70;;;1.67;;
23714;SDS011;12036;50.858;4.472;2023-03-23T15:42:25;7.25;;;1.95;;
23714;SDS011;12036;50.858;4.472;2023-03-23T15:45:16;11.15;;;2.08;;
23714;SDS011;12036;50.858;4.472;2023-03-23T15:47:53;7.30;;;1.98;;
23714;SDS011;12036;50.858;4.472;2023-03-23T15:52:50;4.97;;;1.52;;
23714;SDS011;12036;50.858;4.472;2023-03-23T15:57:50;9.38;;;3.28;;
23714;SDS011;12036;50.858;4.472;2023-03-23T16:00:17;9.65;;;3.88;;
23714;SDS011;12036;50.858;4.472;2023-03-23T16:02:45;11.63;;;3.63;;
23714;SDS011;12036;50.858;4.472;2023-03-23T16:05:13;11.95;;;4.15;;
23714;SDS011;12036;50.858;4.472;2023-03-23T16:07:39;10.88;;;2.90;;
23714;SDS011;12036;50.858;4.472;2023-03-23T16:10:05;4.13;;;1.85;;
23714;SDS011;12036;50.858;4.472;2023-03-23T16:12:32;10.55;;;2.25;;
23714;SDS011;12036;50.858;4.472;2023-03-23T16:14:57;8.63;;;2.50;;
23714;SDS011;12036;50.858;4.472;2023-03-23T16:17:23;8.13;;;2.15;;
23714;SDS011;12036;50.858;4.472;2023-03-23T16:19:50;9.73;;;2.00;;
23714;SDS011;12036;50.858;4.472;2023-03-23T16:22:15;7.55;;;2.13;;
23714;SDS011;12036;50.858;4.472;2023-03-23T16:24:41;6.68;;;2.25;;
23714;SDS011;12036;50.858;4.472;2023-03-23T16:27:10;5.30;;;2.28;;
23714;SDS011;12036;50.858;4.472;2023-03-23T16:29:36;6.68;;;2.17;;
23714;SDS011;12036;50.858;4.472;2023-03-23T16:32:01;9.02;;;1.98;;
23714;SDS011;12036;50.858;4.472;2023-03-23T16:34:27;5.95;;;2.30;;
23714;SDS011;12036;50.858;4.472;2023-03-23T16:36:56;9.85;;;1.67;;
23714;SDS011;12036;50.858;4.472;2023-03-23T16:39:22;8.77;;;2.22;;
23714;SDS011;12036;50.858;4.472;2023-03-23T16:41:48;8.27;;;1.83;;
23714;SDS011;12036;50.858;4.472;2023-03-23T16:44:13;9.23;;;1.85;;
23714;SDS011;12036;50.858;4.472;2023-03-23T16:46:40;5.28;;;1.95;;
23714;SDS011;12036;50.858;4.472;2023-03-23T16:49:05;7.97;;;2.28;;
23714;SDS011;12036;50.858;4.472;2023-03-23T16:51:31;5.18;;;1.65;;
23714;SDS011;12036;50.858;4.472;2023-03-23T16:53:56;6.25;;;1.77;;
23714;SDS011;12036;50.858;4.472;2023-03-23T16:56:22;12.00;;;2.17;;
23714;SDS011;12036;50.858;4.472;2023-03-23T16:58:48;6.13;;;1.52;;
23714;SDS011;12036;50.858;4.472;2023-03-23T17:01:13;6.53;;;1.92;;
23714;SDS011;12036;50.858;4.472;2023-03-23T17:03:40;6.53;;;1.70;;
23714;SDS011;12036;50.858;4.472;2023-03-23T17:06:07;9.05;;;2.05;;
23714;SDS011;12036;50.858;4.472;2023-03-23T17:08:33;8.23;;;1.98;;
23714;SDS011;12036;50.858;4.472;2023-03-23T17:10:59;6.22;;;1.60;;
23714;SDS011;12036;50.858;4.472;2023-03-23T17:13:25;9.20;;;1.83;;
23714;SDS011;12036;50.858;4.472;2023-03-23T17:15:52;8.90;;;3.38;;
23714;SDS011;12036;50.858;4.472;2023-03-23T17:18:20;6.03;;;2.50;;
23714;SDS011;12036;50.858;4.472;2023-03-23T17:20:47;6.88;;;2.40;;
23714;SDS011;12036;50.858;4.472;2023-03-23T17:23:13;7.60;;;1.92;;
23714;SDS011;12036;50.858;4.472;2023-03-23T17:25:39;8.57;;;2.33;;
23714;SDS011;12036;50.858;4.472;2023-03-23T17:28:05;4.60;;;1.88;;